Time;durP1;ratioP1;P1;durP2;ratioP2;P2;SDS_P1;SDS_P2;PMS_P1;PMS_P2;Temp;Humidity;BMP_temperature;BMP_pressure;BME280_temperature;BME280_humidity;BME280_pressure;Samples;Min_cycle;Max_cycle;Signal;HPM_P1;HPM_P2
2023/05/03 00:01:11;;;;;;;6.90;3.40;;;7.90;99.90;;;;;;5034393;28;20335;-72
2023/05/03 00:03:38;;;;;;;7.55;3.92;;;7.80;99.90;;;;;;5034233;28;20260;-73
2023/05/03 00:06:14;;;;;;;8.45;3.85;;;7.80;99.90;;;;;;5033545;28;20224;-72
2023/05/03 00:08:42;;;;;;;8.57;3.65;;;7.80;99.90;;;;;;5033361;28;20255;-73
2023/05/03 00:11:10;;;;;;;12.07;3.70;;;7.70;99.90;;;;;;5033662;28;20221;-70
2023/05/03 00:13:37;;;;;;;8.52;4.05;;;7.70;99.90;;;;;;5041853;28;20637;-72
2023/05/03 00:16:04;;;;;;;9.98;4.13;;;7.70;99.90;;;;;;5039898;28;20216;-71
2023/05/03 00:18:31;;;;;;;7.45;3.67;;;7.60;99.90;;;;;;5038215;28;20203;-71
2023/05/03 00:20:58;;;;;;;4.20;3.22;;;7.60;99.90;;;;;;5033776;28;20211;-71
2023/05/03 00:23:27;;;;;;;5.30;3.70;;;7.50;99.90;;;;;;5034364;28;20737;-73
2023/05/03 00:25:55;;;;;;;7.10;3.70;;;7.50;99.90;;;;;;5034696;28;20237;-71
2023/05/03 00:28:22;;;;;;;4.07;3.25;;;7.50;99.90;;;;;;5035758;28;20736;-73
2023/05/03 00:30:50;;;;;;;5.97;3.20;;;7.40;99.90;;;;;;5033371;28;20297;-71
2023/05/03 00:33:16;;;;;;;11.50;6.75;;;7.40;99.90;;;;;;5039298;28;20207;-72
2023/05/03 00:35:44;;;;;;;8.73;4.45;;;7.40;99.90;;;;;;5033487;28;20219;-73
2023/05/03 00:38:11;;;;;;;8.18;4.10;;;7.30;99.90;;;;;;5038484;28;20284;-72
2023/05/03 00:40:40;;;;;;;8.98;4.90;;;7.40;99.90;;;;;;5032597;28;20227;-75
2023/05/03 00:43:07;;;;;;;6.97;4.00;;;7.20;99.90;;;;;;5036748;28;20306;-72
2023/05/03 00:45:35;;;;;;;8.18;4.07;;;7.20;99.90;;;;;;5033863;28;20282;-72
2023/05/03 00:48:02;;;;;;;6.78;3.45;;;7.20;99.90;;;;;;5035479;28;20207;-75
2023/05/03 00:50:30;;;;;;;12.15;3.70;;;7.10;99.90;;;;;;5034697;28;20221;-69
2023/05/03 00:52:58;;;;;;;6.68;3.85;;;7.00;99.90;;;;;;5035026;28;20215;-72
2023/05/03 00:55:28;;;;;;;6.70;3.45;;;7.10;99.90;;;;;;5031958;28;20330;-71
2023/05/03 00:57:57;;;;;;;5.72;4.00;;;7.00;99.90;;;;;;5034719;28;20260;-71
2023/05/03 01:00:25;;;;;;;7.15;3.75;;;7.00;99.90;;;;;;5036845;28;20230;-75
2023/05/03 01:02:52;;;;;;;4.63;3.90;;;7.00;99.90;;;;;;5033519;28;20211;-74
2023/05/03 01:05:22;;;;;;;8.35;3.63;;;7.00;99.90;;;;;;5041955;28;20212;-72
2023/05/03 01:08:01;;;;;;;13.00;4.57;;;7.00;99.90;;;;;;5027600;28;20293;-71
2023/05/03 01:10:44;;;;;;;12.90;4.57;;;6.90;99.90;;;;;;5027071;28;20706;-71
2023/05/03 01:13:22;;;;;;;6.65;3.85;;;7.00;99.90;;;;;;5031926;28;20227;-72
2023/05/03 01:16:02;;;;;;;12.77;4.15;;;7.00;99.90;;;;;;5031577;28;20612;-72
2023/05/03 01:18:32;;;;;;;8.40;4.50;;;7.00;99.90;;;;;;5031685;28;20374;-71
2023/05/03 01:21:01;;;;;;;8.60;4.30;;;7.00;99.90;;;;;;5029670;28;20677;-71
2023/05/03 01:23:33;;;;;;;5.63;4.53;;;7.00;99.90;;;;;;5032900;28;20235;-71
2023/05/03 01:26:16;;;;;;;6.40;3.88;;;7.00;99.90;;;;;;5029794;28;20540;-71
2023/05/03 01:28:43;;;;;;;4.25;3.85;;;7.00;99.90;;;;;;5032813;28;20230;-73
2023/05/03 01:31:11;;;;;;;5.20;3.72;;;7.10;99.90;;;;;;5034821;28;20301;-71
2023/05/03 01:33:47;;;;;;;6.15;4.10;;;7.10;99.90;;;;;;5032998;28;20286;-71
2023/05/03 01:36:20;;;;;;;11.05;4.32;;;7.10;99.90;;;;;;5031267;28;20250;-72
2023/05/03 01:38:48;;;;;;;6.30;4.63;;;7.20;99.90;;;;;;5048338;28;20684;-70
2023/05/03 01:41:18;;;;;;;9.23;5.50;;;7.30;99.90;;;;;;5036995;28;20210;-73
2023/05/03 01:43:47;;;;;;;5.47;4.00;;;7.40;99.90;;;;;;5034875;28;20271;-70
2023/05/03 01:46:15;;;;;;;9.52;4.68;;;7.40;99.90;;;;;;5034153;28;20192;-70
2023/05/03 01:48:42;;;;;;;7.95;4.43;;;7.40;99.90;;;;;;5034384;28;20222;-71
2023/05/03 01:51:09;;;;;;;6.28;3.80;;;7.50;99.90;;;;;;5038193;28;20222;-72
2023/05/03 01:53:37;;;;;;;12.75;6.45;;;7.60;99.90;;;;;;5036259;28;20285;-73
2023/05/03 01:56:05;;;;;;;10.90;3.78;;;7.60;99.90;;;;;;5035480;28;20717;-72
2023/05/03 01:58:33;;;;;;;7.13;4.55;;;7.70;99.90;;;;;;5038737;28;20231;-71
2023/05/03 02:01:01;;;;;;;7.53;4.30;;;7.70;99.90;;;;;;5032772;28;20587;-71
2023/05/03 02:03:28;;;;;;;5.03;3.85;;;7.70;99.90;;;;;;5032402;28;20286;-72
2023/05/03 02:05:55;;;;;;;7.93;3.85;;;7.80;99.90;;;;;;5036224;28;20655;-74
2023/05/03 02:08:22;;;;;;;6.50;4.72;;;7.80;99.90;;;;;;5036593;28;20215;-72
2023/05/03 02:10:49;;;;;;;3.95;3.45;;;7.80;99.90;;;;;;5034828;28;20223;-73
2023/05/03 02:13:16;;;;;;;9.30;5.55;;;7.70;99.90;;;;;;5036130;28;20657;-73
2023/05/03 02:15:45;;;;;;;8.85;4.45;;;7.70;99.90;;;;;;5037098;28;20214;-73
2023/05/03 02:18:13;;;;;;;8.98;4.57;;;7.70;99.90;;;;;;5037662;28;20237;-74
2023/05/03 02:20:44;;;;;;;11.43;4.43;;;7.70;99.90;;;;;;5041343;28;20223;-72
2023/05/03 02:23:11;;;;;;;8.55;4.90;;;7.70;99.90;;;;;;5035656;28;20402;-72
2023/05/03 02:25:38;;;;;;;10.07;5.38;;;7.80;99.90;;;;;;5035698;28;20604;-72
2023/05/03 02:28:05;;;;;;;12.65;6.20;;;7.90;99.90;;;;;;5022952;28;20213;-72
2023/05/03 02:30:32;;;;;;;17.58;6.18;;;7.90;99.90;;;;;;5034893;28;20315;-72
2023/05/03 02:33:01;;;;;;;16.27;5.50;;;8.00;99.90;;;;;;5039278;28;20210;-70
2023/05/03 02:35:28;;;;;;;21.02;6.93;;;8.00;99.90;;;;;;5050444;28;20206;-72
2023/05/03 02:37:55;;;;;;;10.52;5.75;;;8.00;99.90;;;;;;5035843;28;20303;-71
2023/05/03 02:40:23;;;;;;;12.10;6.05;;;8.10;99.90;;;;;;5034977;28;20282;-74
2023/05/03 02:42:50;;;;;;;11.75;6.30;;;8.10;99.90;;;;;;5039197;28;20302;-74
2023/05/03 02:45:19;;;;;;;19.33;6.35;;;8.20;99.90;;;;;;5035920;28;20273;-73
2023/05/03 02:47:47;;;;;;;7.65;5.07;;;8.20;99.90;;;;;;5031811;28;20222;-71
2023/05/03 02:50:17;;;;;;;10.50;5.43;;;8.30;99.90;;;;;;5034702;28;20768;-73
2023/05/03 02:52:44;;;;;;;10.77;6.13;;;8.30;99.90;;;;;;5034775;28;20651;-73
2023/05/03 02:55:11;;;;;;;8.77;6.18;;;8.40;99.90;;;;;;5035137;28;20206;-74
2023/05/03 02:57:38;;;;;;;12.52;7.00;;;8.40;99.90;;;;;;5034538;28;20263;-72
2023/05/03 03:00:08;;;;;;;10.63;5.85;;;8.40;99.90;;;;;;5034270;28;20235;-73
2023/05/03 03:02:35;;;;;;;19.65;6.50;;;8.40;99.90;;;;;;5034982;28;20207;-72
2023/05/03 03:05:03;;;;;;;11.48;6.95;;;8.40;99.90;;;;;;5034806;28;20299;-72
2023/05/03 03:07:31;;;;;;;9.93;4.90;;;8.50;99.90;;;;;;5034871;28;20235;-73
2023/05/03 03:09:58;;;;;;;14.02;6.15;;;8.50;99.90;;;;;;5027196;28;20230;-71
2023/05/03 03:12:26;;;;;;;7.95;4.80;;;8.40;99.90;;;;;;5035093;28;20199;-73
2023/05/03 03:14:53;;;;;;;9.13;5.95;;;8.40;99.90;;;;;;5034486;28;20255;-70
2023/05/03 03:17:20;;;;;;;9.73;5.40;;;8.40;99.90;;;;;;5034432;28;20694;-70
2023/05/03 03:19:47;;;;;;;10.45;4.00;;;8.50;99.90;;;;;;5032612;28;20224;-72
2023/05/03 03:22:15;;;;;;;9.75;5.28;;;8.40;99.90;;;;;;5034365;28;20247;-71
2023/05/03 03:24:44;;;;;;;9.50;5.30;;;8.40;99.90;;;;;;5032742;28;20619;-71
2023/05/03 03:27:11;;;;;;;7.60;4.82;;;8.40;99.90;;;;;;5035305;28;20204;-71
2023/05/03 03:29:39;;;;;;;7.90;5.15;;;8.40;99.90;;;;;;5033624;28;20307;-73
2023/05/03 03:32:06;;;;;;;11.13;4.80;;;8.40;99.90;;;;;;5040854;28;20207;-75
2023/05/03 03:34:34;;;;;;;16.25;5.63;;;8.40;99.90;;;;;;5034229;28;20199;-75
2023/05/03 03:37:01;;;;;;;7.88;4.60;;;8.40;99.90;;;;;;5034537;28;20686;-73
2023/05/03 03:39:28;;;;;;;11.07;5.78;;;8.40;99.90;;;;;;5033390;28;20229;-74
2023/05/03 03:41:57;;;;;;;7.63;5.35;;;8.40;99.90;;;;;;5034393;28;20255;-73
2023/05/03 03:44:24;;;;;;;7.63;5.70;;;8.30;99.90;;;;;;5035652;28;20295;-72
2023/05/03 03:46:54;;;;;;;10.70;6.13;;;8.30;99.90;;;;;;5034622;28;20319;-74
2023/05/03 03:49:21;;;;;;;11.68;5.93;;;8.30;99.90;;;;;;5033891;28;20267;-70
2023/05/03 03:51:48;;;;;;;9.50;5.65;;;8.20;99.90;;;;;;5043343;28;20206;-71
2023/05/03 03:54:15;;;;;;;6.28;5.38;;;8.20;99.90;;;;;;5028637;28;20298;-74
2023/05/03 03:56:43;;;;;;;9.93;6.30;;;8.20;99.90;;;;;;5034754;28;20258;-72
2023/05/03 03:59:12;;;;;;;10.55;6.10;;;8.30;99.90;;;;;;5033773;28;20246;-70
2023/05/03 04:01:40;;;;;;;8.57;5.20;;;8.30;99.90;;;;;;5033645;28;20215;-71
2023/05/03 04:04:07;;;;;;;11.98;5.18;;;8.20;99.90;;;;;;5028603;28;20579;-71
2023/05/03 04:06:36;;;;;;;13.73;5.35;;;8.20;99.90;;;;;;5033665;28;20278;-69
2023/05/03 04:09:03;;;;;;;18.25;5.72;;;8.20;99.90;;;;;;5033356;28;20228;-73
2023/05/03 04:11:30;;;;;;;7.78;5.88;;;8.10;99.90;;;;;;5032861;28;20204;-74
2023/05/03 04:13:58;;;;;;;10.48;5.38;;;8.10;99.90;;;;;;5034133;28;20203;-72
2023/05/03 04:16:26;;;;;;;13.25;5.40;;;8.20;99.90;;;;;;5035550;28;20204;-71
2023/05/03 04:18:53;;;;;;;9.15;5.32;;;8.30;99.90;;;;;;5033422;28;20254;-71
2023/05/03 04:21:21;;;;;;;8.00;5.13;;;8.20;99.90;;;;;;5036024;28;20258;-71
2023/05/03 04:23:48;;;;;;;11.73;6.03;;;8.20;99.90;;;;;;5033289;28;20242;-73
2023/05/03 04:26:16;;;;;;;8.82;5.55;;;8.20;99.90;;;;;;5033601;28;20628;-74
2023/05/03 04:28:44;;;;;;;13.27;6.45;;;8.20;99.90;;;;;;5031055;28;20269;-72
2023/05/03 04:31:13;;;;;;;9.38;6.40;;;8.20;99.90;;;;;;5032723;28;20209;-73
2023/05/03 04:33:42;;;;;;;8.38;5.75;;;8.30;99.90;;;;;;5034524;28;20223;-72
2023/05/03 04:36:14;;;;;;;7.40;6.63;;;8.40;99.90;;;;;;5033837;28;20298;-71
2023/05/03 04:38:42;;;;;;;9.48;5.03;;;8.40;99.90;;;;;;5033999;28;20237;-74
2023/05/03 04:41:10;;;;;;;16.63;6.20;;;8.40;99.90;;;;;;5038992;28;20210;-71
2023/05/03 04:43:38;;;;;;;11.50;6.10;;;8.50;99.90;;;;;;5040334;28;20231;-73
2023/05/03 04:46:05;;;;;;;12.40;5.95;;;8.80;99.90;;;;;;5027058;28;20208;-71
2023/05/03 04:48:33;;;;;;;7.70;5.20;;;8.80;99.90;;;;;;5035297;28;20235;-72
2023/05/03 04:51:01;;;;;;;14.27;6.22;;;8.90;99.90;;;;;;5034462;28;20204;-72
2023/05/03 04:53:28;;;;;;;9.35;5.80;;;8.90;99.90;;;;;;5033372;28;20218;-75
2023/05/03 04:55:55;;;;;;;13.40;5.80;;;8.90;99.90;;;;;;5031777;28;20200;-72
2023/05/03 04:58:23;;;;;;;6.32;5.45;;;9.00;99.90;;;;;;5037212;28;20562;-73
2023/05/03 05:00:50;;;;;;;11.38;6.35;;;9.00;99.90;;;;;;5032387;28;20274;-73
2023/05/03 05:03:18;;;;;;;20.02;7.25;;;9.00;99.90;;;;;;5043861;28;20210;-71
2023/05/03 05:05:45;;;;;;;21.63;8.45;;;9.10;99.90;;;;;;5033153;28;20200;-71
2023/05/03 05:08:13;;;;;;;7.10;5.60;;;9.10;99.90;;;;;;5034143;28;20200;-73
2023/05/03 05:10:41;;;;;;;9.20;5.72;;;9.20;99.90;;;;;;5039119;28;20310;-71
2023/05/03 05:13:08;;;;;;;9.13;6.45;;;9.20;99.90;;;;;;5028578;28;20635;-72
2023/05/03 05:15:36;;;;;;;8.40;5.07;;;9.30;99.90;;;;;;5032383;28;20259;-73
2023/05/03 05:18:03;;;;;;;13.77;6.07;;;9.40;99.90;;;;;;5034542;28;20269;-73
2023/05/03 05:20:30;;;;;;;11.98;6.20;;;9.50;99.90;;;;;;5028317;28;20224;-73
2023/05/03 05:22:58;;;;;;;9.13;5.30;;;9.50;99.90;;;;;;5031689;28;20214;-72
2023/05/03 05:25:30;;;;;;;10.15;6.03;;;9.60;99.90;;;;;;5035122;28;20327;-72
2023/05/03 05:27:57;;;;;;;8.77;5.63;;;9.60;99.90;;;;;;5042739;28;20551;-74
2023/05/03 05:30:24;;;;;;;9.65;5.57;;;9.80;99.90;;;;;;5032442;28;20774;-72
2023/05/03 05:32:51;;;;;;;20.10;6.65;;;9.90;99.90;;;;;;5037157;28;20622;-69
2023/05/03 05:35:19;;;;;;;11.75;5.40;;;10.10;99.90;;;;;;5036027;28;20204;-74
2023/05/03 05:37:46;;;;;;;8.65;4.45;;;10.20;99.90;;;;;;5042764;28;20582;-71
2023/05/03 05:40:13;;;;;;;7.45;5.43;;;10.20;99.90;;;;;;5039309;28;20228;-73
2023/05/03 05:42:42;;;;;;;4.70;4.13;;;10.20;99.90;;;;;;5037246;28;20201;-74
2023/05/03 05:45:10;;;;;;;8.75;5.03;;;10.40;99.90;;;;;;5039663;28;20212;-72
2023/05/03 05:47:37;;;;;;;9.70;5.63;;;10.30;99.90;;;;;;5041355;28;20196;-73
2023/05/03 05:50:04;;;;;;;11.38;5.85;;;10.50;99.90;;;;;;5045162;28;20232;-71
2023/05/03 05:52:31;;;;;;;5.63;5.13;;;10.70;99.90;;;;;;5043175;28;20208;-71
2023/05/03 05:54:58;;;;;;;13.48;5.13;;;10.90;99.90;;;;;;5037907;28;20300;-72
2023/05/03 05:57:25;;;;;;;8.52;4.10;;;11.00;99.90;;;;;;5041345;28;20234;-73
2023/05/03 05:59:53;;;;;;;6.85;3.88;;;11.20;99.90;;;;;;5034266;28;20319;-73
2023/05/03 06:02:23;;;;;;;9.23;4.10;;;11.40;99.90;;;;;;5037335;28;20239;-72
2023/05/03 06:04:50;;;;;;;6.43;3.28;;;11.60;99.90;;;;;;5035725;28;20295;-69
2023/05/03 06:07:17;;;;;;;6.45;4.38;;;11.70;99.90;;;;;;5035274;28;20249;-75
2023/05/03 06:09:44;;;;;;;9.00;4.70;;;11.80;99.90;;;;;;5037255;28;20230;-70
2023/05/03 06:12:11;;;;;;;11.55;6.32;;;11.90;99.40;;;;;;5035735;28;20265;-72
2023/05/03 06:14:39;;;;;;;9.50;5.07;;;12.00;98.50;;;;;;5036515;28;20236;-74
2023/05/03 06:17:07;;;;;;;6.90;5.07;;;12.10;98.80;;;;;;5040188;28;20231;-73
2023/05/03 06:19:35;;;;;;;7.80;4.30;;;12.20;97.50;;;;;;5045471;28;20255;-72
2023/05/03 06:22:03;;;;;;;9.45;4.28;;;12.30;97.00;;;;;;5035010;28;20307;-73
2023/05/03 06:24:31;;;;;;;8.60;4.55;;;12.40;96.10;;;;;;5037407;28;20558;-71
2023/05/03 06:26:59;;;;;;;8.30;4.70;;;12.40;95.60;;;;;;5028162;28;20253;-73
2023/05/03 06:29:27;;;;;;;6.07;2.70;;;12.60;96.00;;;;;;5037528;28;20277;-71
2023/05/03 06:31:54;;;;;;;8.13;4.35;;;12.80;94.70;;;;;;5040534;28;20277;-72
2023/05/03 06:34:22;;;;;;;12.68;4.43;;;13.00;94.00;;;;;;5040808;28;20223;-71
2023/05/03 06:36:51;;;;;;;6.35;5.28;;;13.30;94.20;;;;;;5037102;28;20218;-71
2023/05/03 06:39:18;;;;;;;7.18;3.85;;;13.60;93.90;;;;;;5038593;28;20220;-71
2023/05/03 06:41:45;;;;;;;7.22;4.20;;;13.80;93.10;;;;;;5034916;28;20300;-72
2023/05/03 06:44:12;;;;;;;12.02;4.90;;;14.00;91.70;;;;;;5041400;28;20656;-73
2023/05/03 06:46:39;;;;;;;5.93;2.95;;;14.00;91.20;;;;;;5034967;28;20228;-74
2023/05/03 06:49:07;;;;;;;6.20;2.30;;;14.20;90.10;;;;;;5034794;28;20323;-70
2023/05/03 06:51:35;;;;;;;2.85;2.15;;;14.20;87.00;;;;;;5034763;28;20204;-70
2023/05/03 06:54:08;;;;;;;3.92;2.47;;;14.10;87.90;;;;;;5035512;28;20208;-73
2023/05/03 06:56:35;;;;;;;4.07;2.63;;;13.90;86.70;;;;;;5034897;28;20354;-73
2023/05/03 06:59:03;;;;;;;6.35;2.28;;;13.70;88.40;;;;;;5034849;28;20236;-72
2023/05/03 07:01:29;;;;;;;4.50;2.20;;;13.70;88.40;;;;;;5033405;28;20204;-71
2023/05/03 07:03:58;;;;;;;4.20;2.30;;;13.60;88.90;;;;;;5050557;28;20203;-70
2023/05/03 07:06:24;;;;;;;4.55;2.97;;;13.50;90.00;;;;;;5040743;28;20229;-70
2023/05/03 07:08:54;;;;;;;8.10;3.63;;;13.50;90.10;;;;;;5036420;28;20309;-71
2023/05/03 07:11:22;;;;;;;9.85;3.35;;;13.20;90.00;;;;;;5036349;28;20214;-72
2023/05/03 07:13:50;;;;;;;4.90;2.28;;;13.30;90.50;;;;;;5034284;28;20211;-73
2023/05/03 07:16:17;;;;;;;8.00;2.95;;;13.30;90.70;;;;;;5033221;28;20235;-72
2023/05/03 07:18:45;;;;;;;5.95;3.45;;;13.30;90.40;;;;;;5041433;28;20313;-71
2023/05/03 07:21:12;;;;;;;5.15;2.60;;;13.30;90.20;;;;;;5037765;28;20215;-75
2023/05/03 07:23:39;;;;;;;3.35;2.00;;;13.40;90.70;;;;;;5036465;28;20206;-74
2023/05/03 07:26:07;;;;;;;4.30;2.40;;;13.70;89.80;;;;;;5035063;28;20224;-71
2023/05/03 07:28:34;;;;;;;5.60;2.67;;;13.90;88.60;;;;;;5034713;28;20202;-70
2023/05/03 07:31:03;;;;;;;6.75;2.75;;;14.20;88.20;;;;;;5035873;28;20351;-69
2023/05/03 07:33:30;;;;;;;3.95;3.28;;;14.20;87.50;;;;;;5044971;28;20603;-71
2023/05/03 07:35:57;;;;;;;7.20;3.33;;;14.20;87.50;;;;;;5036852;28;20682;-74
2023/05/03 07:38:24;;;;;;;8.68;3.15;;;13.90;87.80;;;;;;5035031;28;20212;-69
2023/05/03 07:40:51;;;;;;;11.50;3.65;;;13.90;89.10;;;;;;5034745;28;20203;-72
2023/05/03 07:43:22;;;;;;;6.97;3.30;;;13.90;89.10;;;;;;5035973;28;20291;-72
2023/05/03 07:45:49;;;;;;;9.48;4.03;;;13.70;89.40;;;;;;5040368;28;20243;-72
2023/05/03 07:48:16;;;;;;;12.35;4.30;;;13.70;89.90;;;;;;5040290;28;20203;-71
2023/05/03 07:50:43;;;;;;;5.97;2.75;;;13.70;90.00;;;;;;5038675;28;20216;-71
2023/05/03 07:53:11;;;;;;;17.52;10.10;;;13.70;89.80;;;;;;5041882;28;20204;-72
2023/05/03 07:55:38;;;;;;;8.13;1.90;;;13.70;90.20;;;;;;5042956;28;20295;-70
2023/05/03 07:58:05;;;;;;;19.75;3.15;;;13.80;89.60;;;;;;5043460;28;20276;-69
2023/05/03 08:00:34;;;;;;;13.10;2.30;;;14.00;87.80;;;;;;5041262;28;20255;-70
2023/05/03 08:03:03;;;;;;;7.93;2.63;;;14.30;86.90;;;;;;5032140;28;20204;-71
2023/05/03 08:05:29;;;;;;;3.28;1.90;;;14.70;86.10;;;;;;5039675;28;20196;-72
2023/05/03 08:07:57;;;;;;;24.02;3.53;;;14.90;84.20;;;;;;5036134;28;20564;-72
2023/05/03 08:10:24;;;;;;;5.32;2.42;;;15.00;83.50;;;;;;5037325;28;20226;-72
2023/05/03 08:12:51;;;;;;;3.65;1.38;;;14.90;83.20;;;;;;5037264;28;20200;-73
2023/05/03 08:15:20;;;;;;;8.30;2.40;;;14.90;83.40;;;;;;5045912;28;20250;-72
2023/05/03 08:17:50;;;;;;;3.97;2.95;;;14.90;83.40;;;;;;5035425;28;20280;-71
2023/05/03 08:20:17;;;;;;;3.55;1.40;;;14.80;83.50;;;;;;5032688;28;20228;-72
2023/05/03 08:22:46;;;;;;;4.93;2.85;;;14.60;82.90;;;;;;5036456;28;20307;-74
2023/05/03 08:25:17;;;;;;;4.75;1.83;;;14.50;82.90;;;;;;5039045;28;20689;-75
2023/05/03 08:27:47;;;;;;;6.43;3.83;;;14.20;82.30;;;;;;5041139;28;20204;-71
2023/05/03 08:30:14;;;;;;;13.55;8.40;;;14.40;84.60;;;;;;5036118;28;20228;-70
2023/05/03 08:32:44;;;;;;;13.45;6.30;;;14.70;88.30;;;;;;5036331;28;20289;-71
2023/05/03 08:35:13;;;;;;;4.43;2.75;;;15.00;84.10;;;;;;5038056;28;20205;-74
2023/05/03 08:37:41;;;;;;;10.25;6.30;;;15.10;82.50;;;;;;5032822;28;20243;-69
2023/05/03 08:40:10;;;;;;;6.10;2.70;;;15.20;84.50;;;;;;5032579;28;20645;-73
2023/05/03 08:42:40;;;;;;;14.05;7.50;;;15.30;80.50;;;;;;5032511;28;20265;-72
2023/05/03 08:45:10;;;;;;;7.28;4.15;;;15.50;87.20;;;;;;5034956;28;20200;-72
2023/05/03 08:47:39;;;;;;;8.00;4.53;;;15.80;83.80;;;;;;5030948;28;20293;-71
2023/05/03 08:50:08;;;;;;;8.20;4.53;;;16.30;83.90;;;;;;5030691;28;20481;-71
2023/05/03 08:52:36;;;;;;;9.70;4.67;;;16.90;81.60;;;;;;5032431;28;20450;-74
2023/05/03 08:55:06;;;;;;;4.27;2.53;;;17.80;82.20;;;;;;5031552;28;20457;-75
2023/05/03 08:57:37;;;;;;;4.07;2.40;;;19.40;76.20;;;;;;5034038;28;20528;-72
2023/05/03 09:00:11;;;;;;;6.03;3.43;;;21.00;71.60;;;;;;5037859;28;20485;-74
2023/05/03 09:02:46;;;;;;;5.13;2.90;;;22.20;68.20;;;;;;5036752;28;20490;-74
2023/05/03 09:05:33;;;;;;;4.50;2.10;;;22.10;65.80;;;;;;5032968;28;20936;-71
2023/05/03 09:08:07;;;;;;;3.53;2.23;;;21.30;65.90;;;;;;5029577;28;20454;-73
2023/05/03 09:10:37;;;;;;;4.17;2.30;;;21.00;66.70;;;;;;5034713;28;20482;-72
2023/05/03 09:13:15;;;;;;;7.10;3.63;;;21.50;64.60;;;;;;5033631;28;20794;-73
2023/05/03 09:15:45;;;;;;;4.37;3.73;;;21.00;64.70;;;;;;5030893;28;20446;-73
2023/05/03 09:18:16;;;;;;;4.90;3.77;;;20.60;65.50;;;;;;5038390;28;20455;-71
2023/05/03 09:20:50;;;;;;;3.80;2.23;;;20.10;66.60;;;;;;5034206;28;20481;-70
2023/05/03 09:23:19;;;;;;;4.70;2.33;;;21.00;66.40;;;;;;5032291;28;20446;-68
2023/05/03 09:25:50;;;;;;;5.23;2.80;;;22.00;62.10;;;;;;5031316;28;20492;-72
2023/05/03 09:28:18;;;;;;;6.43;3.47;;;21.50;63.10;;;;;;5033968;28;20441;-70
2023/05/03 09:30:47;;;;;;;3.97;2.80;;;21.00;64.30;;;;;;5037850;28;20517;-72
2023/05/03 09:33:19;;;;;;;5.40;3.57;;;20.70;64.60;;;;;;5032366;28;21186;-72
2023/05/03 09:35:56;;;;;;;5.13;3.00;;;20.10;65.80;;;;;;5032046;28;20443;-73
2023/05/03 09:38:28;;;;;;;7.10;2.80;;;19.50;66.40;;;;;;5037524;28;20447;-72
2023/05/03 09:40:56;;;;;;;5.53;3.00;;;19.20;67.90;;;;;;5040306;28;20446;-72
2023/05/03 09:43:23;;;;;;;10.17;2.93;;;19.80;67.70;;;;;;5031984;28;20933;-72
2023/05/03 09:45:50;;;;;;;4.97;3.10;;;20.00;65.10;;;;;;5033028;28;20517;-74
2023/05/03 09:48:19;;;;;;;7.50;3.00;;;19.90;66.70;;;;;;5036051;28;20446;-72
2023/05/03 09:50:46;;;;;;;6.53;3.40;;;19.60;65.60;;;;;;5038155;28;20463;-72
2023/05/03 09:53:17;;;;;;;4.77;3.33;;;19.20;66.60;;;;;;5033227;28;20803;-71
2023/05/03 09:55:46;;;;;;;7.07;2.33;;;18.70;68.00;;;;;;5031489;28;20477;-69
2023/05/03 09:58:13;;;;;;;5.10;2.90;;;18.40;69.80;;;;;;5031602;28;20925;-72
2023/05/03 10:00:42;;;;;;;3.40;2.30;;;18.20;69.80;;;;;;5031032;28;21000;-70
2023/05/03 10:03:11;;;;;;;6.80;2.77;;;18.20;69.30;;;;;;5038123;28;20829;-71
2023/05/03 10:05:50;;;;;;;3.10;2.80;;;18.50;70.10;;;;;;5032710;28;20942;-71
2023/05/03 10:08:24;;;;;;;6.67;2.07;;;19.30;67.40;;;;;;5032889;28;20882;-70
2023/05/03 10:10:54;;;;;;;5.73;2.37;;;19.60;67.00;;;;;;5033343;28;20546;-72
2023/05/03 10:13:32;;;;;;;6.30;1.90;;;20.40;67.00;;;;;;5033617;28;20454;-74
2023/05/03 10:16:03;;;;;;;4.07;1.60;;;21.60;65.00;;;;;;5032675;28;20442;-70
2023/05/03 10:18:33;;;;;;;5.10;2.73;;;23.00;63.80;;;;;;5027996;28;20447;-69
2023/05/03 10:21:09;;;;;;;5.00;1.97;;;23.30;59.40;;;;;;5027704;28;20811;-69
2023/05/03 10:23:37;;;;;;;3.57;2.70;;;23.00;59.90;;;;;;5029179;28;20926;-72
2023/05/03 10:26:16;;;;;;;5.80;2.10;;;22.60;61.40;;;;;;5034651;28;20454;-71
2023/05/03 10:28:43;;;;;;;3.87;2.37;;;22.00;61.40;;;;;;5034950;28;20476;-71
2023/05/03 10:31:45;;;;;;;2.43;1.80;;;21.50;61.50;;;;;;5042698;28;20483;-72
2023/05/03 10:34:39;;;;;;;5.80;2.00;;;21.30;62.50;;;;;;5034588;28;20441;-75
2023/05/03 10:37:10;;;;;;;7.73;2.13;;;21.30;62.90;;;;;;5033722;28;20456;-75
2023/05/03 10:39:37;;;;;;;3.90;2.30;;;20.80;64.90;;;;;;5030930;28;20495;-73
2023/05/03 10:42:08;;;;;;;3.57;2.00;;;20.50;64.10;;;;;;5043532;28;20856;-72
2023/05/03 10:44:39;;;;;;;5.17;2.10;;;20.00;63.80;;;;;;5045180;28;20457;-75
2023/05/03 10:47:13;;;;;;;4.23;2.40;;;19.70;65.70;;;;;;5044827;28;20477;-74
2023/05/03 10:49:41;;;;;;;2.33;1.70;;;19.50;66.90;;;;;;5048250;28;20470;-74
2023/05/03 10:52:42;;;;;;;3.17;1.90;;;19.40;65.00;;;;;;5028772;28;20531;-71
2023/05/03 10:55:13;;;;;;;5.43;3.30;;;19.20;64.50;;;;;;5035678;28;20443;-73
2023/05/03 10:57:49;;;;;;;3.37;2.00;;;19.00;67.90;;;;;;5040152;28;20462;-73
2023/05/03 11:00:22;;;;;;;3.93;2.53;;;18.90;67.90;;;;;;5038321;28;20857;-72
2023/05/03 11:03:09;;;;;;;4.67;2.70;;;18.80;68.20;;;;;;5036208;28;20952;-73
2023/05/03 11:05:43;;;;;;;5.97;3.03;;;19.10;68.10;;;;;;5035775;28;20443;-74
2023/05/03 11:08:11;;;;;;;3.40;2.10;;;19.10;66.90;;;;;;5034407;28;20463;-72
2023/05/03 11:10:39;;;;;;;3.00;2.17;;;18.70;66.80;;;;;;5036427;28;20458;-75
2023/05/03 11:13:08;;;;;;;3.40;2.93;;;18.60;66.40;;;;;;5036328;28;21165;-74
2023/05/03 11:15:36;;;;;;;4.87;2.33;;;18.40;67.60;;;;;;5035325;28;20960;-73
2023/05/03 11:18:03;;;;;;;6.00;2.90;;;18.50;68.30;;;;;;5034825;28;20957;-74
2023/05/03 11:20:34;;;;;;;4.77;2.90;;;18.20;67.70;;;;;;5035697;28;20851;-71
2023/05/03 11:23:02;;;;;;;3.80;2.40;;;18.30;68.40;;;;;;5036502;28;20459;-73
2023/05/03 11:25:29;;;;;;;7.30;2.40;;;18.00;68.10;;;;;;5044109;28;20458;-76
2023/05/03 11:27:57;;;;;;;3.90;2.50;;;17.90;69.00;;;;;;5045504;28;20474;-71
2023/05/03 11:30:32;;;;;;;2.33;2.10;;;17.30;69.80;;;;;;5041518;28;20553;-73
2023/05/03 11:32:59;;;;;;;5.13;2.50;;;17.10;70.60;;;;;;5040976;28;20515;-71
2023/05/03 11:35:30;;;;;;;3.93;2.53;;;17.00;71.50;;;;;;5035639;28;20951;-73
2023/05/03 11:37:58;;;;;;;4.20;3.00;;;17.00;70.10;;;;;;5034684;28;20928;-73
2023/05/03 11:40:29;;;;;;;3.20;2.70;;;17.00;71.90;;;;;;5036532;28;20566;-71
2023/05/03 11:42:57;;;;;;;3.97;2.40;;;17.20;72.50;;;;;;5036376;28;20455;-69
2023/05/03 11:45:26;;;;;;;2.90;2.50;;;17.10;69.10;;;;;;5038954;28;20504;-73
2023/05/03 11:47:56;;;;;;;5.97;3.50;;;16.70;68.90;;;;;;5043862;28;20473;-73
2023/05/03 11:50:47;;;;;;;2.40;2.20;;;16.40;69.10;;;;;;5042764;28;20545;-75
2023/05/03 11:53:15;;;;;;;9.48;2.45;;;16.30;70.30;;;;;;5038868;28;20210;-73
2023/05/03 11:55:45;;;;;;;5.57;2.88;;;16.20;70.20;;;;;;5038944;28;20288;-74
2023/05/03 11:58:13;;;;;;;4.93;2.50;;;16.00;72.30;;;;;;5040835;28;20206;-72
2023/05/03 12:00:43;;;;;;;2.37;2.17;;;16.20;72.40;;;;;;5040396;28;20485;-73
2023/05/03 12:03:16;;;;;;;3.45;2.17;;;16.30;70.70;;;;;;5037905;28;20450;-74
2023/05/03 12:05:45;;;;;;;2.75;2.10;;;16.30;70.30;;;;;;5034334;28;20279;-74
2023/05/03 12:08:12;;;;;;;3.25;2.40;;;16.30;71.10;;;;;;5034002;28;20211;-74
2023/05/03 12:10:47;;;;;;;4.88;2.25;;;16.30;71.00;;;;;;5035863;28;20763;-74
2023/05/03 12:13:27;;;;;;;5.68;3.28;;;16.30;70.70;;;;;;5035399;28;20217;-72
2023/05/03 12:15:57;;;;;;;3.10;2.80;;;16.60;71.10;;;;;;5033511;28;20214;-74
2023/05/03 12:18:25;;;;;;;2.47;2.27;;;16.70;70.90;;;;;;5033683;28;20497;-75
2023/05/03 12:20:56;;;;;;;3.75;2.42;;;16.70;70.00;;;;;;5033313;28;20501;-71
2023/05/03 12:23:25;;;;;;;3.45;2.40;;;16.80;70.00;;;;;;5034619;28;20199;-72
2023/05/03 12:25:52;;;;;;;3.42;3.08;;;16.70;70.40;;;;;;5042533;28;20204;-71
2023/05/03 12:28:19;;;;;;;3.47;2.45;;;16.60;70.80;;;;;;5033585;28;20198;-70
2023/05/03 12:30:47;;;;;;;3.40;2.35;;;16.20;70.60;;;;;;5032473;28;20198;-74
2023/05/03 12:33:15;;;;;;;3.03;2.10;;;16.20;71.60;;;;;;5032307;28;20670;-71
2023/05/03 12:35:45;;;;;;;6.53;4.03;;;16.50;72.20;;;;;;5041281;28;20445;-73
2023/05/03 12:38:12;;;;;;;4.83;2.43;;;16.40;71.50;;;;;;5023878;28;20216;-72
2023/05/03 12:40:40;;;;;;;2.53;2.00;;;16.50;71.60;;;;;;5043691;28;20859;-73
2023/05/03 12:43:10;;;;;;;2.97;2.33;;;16.30;71.40;;;;;;5038122;28;20277;-70
2023/05/03 12:45:37;;;;;;;5.10;3.15;;;16.30;71.90;;;;;;5040039;28;20205;-73
2023/05/03 12:48:05;;;;;;;2.60;2.20;;;16.10;72.40;;;;;;5042469;28;20288;-71
2023/05/03 12:50:32;;;;;;;5.90;2.63;;;16.00;73.00;;;;;;5039629;28;20693;-72
2023/05/03 12:53:01;;;;;;;10.38;3.20;;;16.10;73.00;;;;;;5037414;28;20202;-73
2023/05/03 12:55:32;;;;;;;9.68;3.95;;;16.10;73.60;;;;;;5046913;28;20206;-72
2023/05/03 12:57:59;;;;;;;8.25;2.60;;;16.20;73.90;;;;;;5036153;28;20210;-72